Time;durP1;ratioP1;P1;durP2;ratioP2;P2;SDS_P1;SDS_P2;PMS_P1;PMS_P2;Temp;Humidity;BMP_temperature;BMP_pressure;BME280_temperature;BME280_humidity;BME280_pressure;Samples;Min_cycle;Max_cycle;Signal;HPM_P1;HPM_P2
2021/04/09 00:01:35;;;;;;;22.88;10.85;;;;;;;3.69;55.33;97834.81;5004621;28;20123;-61
2021/04/09 00:04:01;;;;;;;19.40;9.57;;;;;;;3.07;56.39;97724.16;5004528;28;20042;-63
2021/04/09 00:06:27;;;;;;;16.15;7.57;;;;;;;3.31;56.21;97768.53;5002614;28;20413;-63
2021/04/09 00:08:52;;;;;;;16.75;8.55;;;;;;;3.41;57.68;97842.25;5002430;28;20061;-64
2021/04/09 00:11:18;;;;;;;21.27;8.88;;;;;;;3.35;57.44;97813.34;5003997;28;20087;-63
2021/04/09 00:13:43;;;;;;;22.05;9.43;;;;;;;2.96;58.32;97766.50;5004445;28;20042;-63
2021/04/09 00:16:09;;;;;;;27.17;10.88;;;;;;;3.24;57.59;97791.97;5003888;28;20037;-63
2021/04/09 00:18:35;;;;;;;19.85;9.73;;;;;;;3.27;57.66;97818.72;5003078;28;20129;-63
2021/04/09 00:21:01;;;;;;;33.45;12.07;;;;;;;3.17;58.22;97816.19;5003771;28;20037;-63
2021/04/09 00:23:27;;;;;;;24.27;11.63;;;;;;;3.23;59.11;97823.19;5002438;28;20060;-62
2021/04/09 00:25:52;;;;;;;32.55;15.85;;;;;;;2.59;60.28;97739.34;5003624;28;20481;-62
2021/04/09 00:28:17;;;;;;;30.98;14.90;;;;;;;2.14;59.71;97666.38;5004168;28;20145;-64
2021/04/09 00:30:43;;;;;;;41.38;15.50;;;;;;;2.37;60.81;97750.16;5001942;28;20022;-62
2021/04/09 00:33:09;;;;;;;38.28;15.40;;;;;;;2.59;62.93;97802.25;5004125;28;20505;-62
2021/04/09 00:35:34;;;;;;;24.20;11.43;;;;;;;2.65;62.77;97836.59;5003527;28;20038;-62
2021/04/09 00:38:00;;;;;;;13.60;6.32;;;;;;;2.50;61.68;97809.50;5004409;28;20217;-62
2021/04/09 00:40:25;;;;;;;9.57;4.53;;;;;;;2.59;60.76;97821.38;5001910;28;20041;-62
2021/04/09 00:42:51;;;;;;;8.73;3.95;;;;;;;2.55;61.18;97831.28;5003782;28;20042;-62
2021/04/09 00:45:17;;;;;;;8.38;4.78;;;;;;;2.62;60.80;97831.72;5001763;28;21735;-62
2021/04/09 00:47:43;;;;;;;9.60;4.50;;;;;;;2.60;59.78;97840.22;5003975;28;20038;-62
2021/04/09 00:50:10;;;;;;;10.15;4.63;;;;;;;2.46;60.32;97838.56;5006902;28;20029;-62
2021/04/09 00:52:37;;;;;;;14.60;5.82;;;;;;;2.30;61.77;97867.25;5006332;28;20042;-62
2021/04/09 00:55:04;;;;;;;29.02;11.77;;;;;;;2.47;61.94;97837.44;5007627;28;20416;-62
2021/04/09 00:57:30;;;;;;;33.05;12.13;;;;;;;1.84;62.23;97740.66;5006388;28;20034;-63
2021/04/09 00:59:57;;;;;;;13.25;6.32;;;;;;;1.92;59.50;97762.66;5007898;28;20037;-64
2021/04/09 01:02:23;;;;;;;13.00;5.60;;;;;;;2.46;56.99;97816.69;5007128;28;20069;-63
2021/04/09 01:04:49;;;;;;;14.18;6.00;;;;;;;2.15;57.14;97755.47;5007874;28;20064;-62
2021/04/09 01:07:14;;;;;;;20.73;7.05;;;;;;;2.73;59.96;97833.16;5007404;28;20077;-61
2021/04/09 01:09:40;;;;;;;20.60;8.48;;;;;;;2.70;60.61;97844.72;5007879;28;20116;-61
2021/04/09 01:12:06;;;;;;;23.17;10.98;;;;;;;2.63;60.69;97844.28;5007122;28;20485;-61
2021/04/09 01:14:32;;;;;;;18.98;8.07;;;;;;;2.48;60.74;97844.53;5007973;28;20038;-61
2021/04/09 01:17:20;;;;;;;13.38;5.93;;;;;;;2.52;60.71;97843.66;5005956;28;20085;-62
2021/04/09 01:20:18;;;;;;;19.48;8.52;;;;;;;2.52;62.39;97845.56;5007679;28;20520;-61
2021/04/09 01:22:48;;;;;;;19.52;8.00;;;;;;;2.47;62.14;97867.50;5006997;28;20050;-61
2021/04/09 01:25:38;;;;;;;25.90;9.60;;;;;;;2.40;61.78;97846.00;5007030;28;20236;-61
2021/04/09 01:28:14;;;;;;;22.98;10.00;;;;;;;2.44;62.48;97840.78;5005487;28;20034;-61
2021/04/09 01:30:55;;;;;;;22.33;11.98;;;;;;;2.42;62.96;97853.94;5005042;28;20119;-61
2021/04/09 01:33:26;;;;;;;20.45;10.27;;;;;;;2.25;64.46;97856.38;5007330;28;20073;-62
2021/04/09 01:35:56;;;;;;;12.70;5.32;;;;;;;2.13;61.45;97861.50;5006724;28;20036;-61
2021/04/09 01:38:24;;;;;;;10.07;5.22;;;;;;;2.14;61.52;97857.66;5007695;28;20030;-63
2021/04/09 01:40:52;;;;;;;12.93;5.60;;;;;;;2.03;61.79;97834.31;5004863;28;20232;-62
2021/04/09 01:43:20;;;;;;;18.40;8.13;;;;;;;2.15;62.25;97862.03;5007014;28;20428;-62
2021/04/09 01:45:49;;;;;;;12.88;5.15;;;;;;;2.15;61.26;97864.75;5004522;28;20064;-62
2021/04/09 01:48:16;;;;;;;10.65;4.40;;;;;;;2.19;60.72;97871.25;5006998;28;20026;-62
2021/04/09 01:50:42;;;;;;;8.88;4.28;;;;;;;1.67;62.33;97819.56;5006330;28;20661;-62
2021/04/09 01:53:11;;;;;;;12.02;4.93;;;;;;;2.06;63.70;97872.81;5006933;28;20029;-62
2021/04/09 01:55:40;;;;;;;10.75;4.55;;;;;;;1.50;64.74;97793.56;5004827;28;20037;-63
2021/04/09 01:58:09;;;;;;;8.70;4.80;;;;;;;1.96;62.44;97872.16;5006839;28;20065;-62
2021/04/09 02:00:35;;;;;;;8.98;4.15;;;;;;;2.00;63.22;97873.16;5004254;28;20041;-62
2021/04/09 02:03:01;;;;;;;5.75;3.17;;;;;;;1.92;62.68;97863.72;5006666;28;20072;-63
2021/04/09 02:05:28;;;;;;;7.22;3.50;;;;;;;1.36;63.86;97797.31;5006003;28;20057;-63
2021/04/09 02:07:58;;;;;;;9.68;4.18;;;;;;;1.67;64.35;97846.88;5006141;28;20058;-62
2021/04/09 02:10:25;;;;;;;8.13;3.42;;;;;;;1.77;65.18;97874.03;5004465;28;20038;-62
2021/04/09 02:12:52;;;;;;;14.07;5.45;;;;;;;1.79;65.87;97866.38;5006829;28;20030;-62
2021/04/09 02:15:21;;;;;;;10.10;3.85;;;;;;;1.70;64.77;97868.13;5006044;28;20052;-62
2021/04/09 02:17:47;;;;;;;7.82;3.70;;;;;;;1.63;65.20;97873.16;5004930;28;20053;-63
2021/04/09 02:20:15;;;;;;;12.23;4.95;;;;;;;1.36;66.77;97858.16;5005612;28;20450;-61
2021/04/09 02:22:45;;;;;;;12.43;4.55;;;;;;;1.39;67.73;97882.16;5004683;28;20068;-62
2021/04/09 02:25:17;;;;;;;14.30;4.93;;;;;;;1.22;68.32;97887.25;5004154;28;20539;-62
2021/04/09 02:27:44;;;;;;;18.33;5.25;;;;;;;1.13;69.48;97890.91;5006309;28;20092;-63
2021/04/09 02:30:11;;;;;;;13.98;6.43;;;;;;;1.11;68.47;97888.47;5005760;28;20026;-62
2021/04/09 02:32:37;;;;;;;14.85;6.20;;;;;;;0.92;69.29;97884.84;5006416;28;20126;-63
2021/04/09 02:35:07;;;;;;;10.05;4.38;;;;;;;1.09;68.99;97890.66;5006013;28;20026;-62
2021/04/09 02:37:33;;;;;;;9.43;3.88;;;;;;;1.05;68.80;97903.28;5004352;28;20050;-63
2021/04/09 02:40:03;;;;;;;5.55;3.00;;;;;;;1.10;69.98;97886.88;5005910;28;20044;-63
2021/04/09 02:42:29;;;;;;;8.68;3.92;;;;;;;0.98;70.26;97894.59;5005776;28;20534;-62
2021/04/09 02:44:55;;;;;;;16.35;5.28;;;;;;;0.15;70.77;97765.13;5005925;28;20030;-60
2021/04/09 02:47:26;;;;;;;10.23;4.65;;;;;;;0.62;71.58;97885.13;5005345;28;20390;-61
2021/04/09 02:49:59;;;;;;;8.68;3.28;;;;;;;0.62;72.34;97887.88;5006151;28;20064;-62
2021/04/09 02:52:30;;;;;;;5.15;2.80;;;;;;;0.59;72.35;97887.63;5004009;28;20505;-64
2021/04/09 02:54:58;;;;;;;8.27;3.70;;;;;;;-0.14;72.60;97794.22;5005693;28;20148;-62
2021/04/09 02:57:26;;;;;;;14.15;5.03;;;;;;;0.53;72.50;97908.66;5003364;28;20033;-61
2021/04/09 02:59:53;;;;;;;16.05;6.60;;;;;;;0.63;71.41;97878.59;5005726;28;20038;-61
2021/04/09 03:02:19;;;;;;;10.13;4.70;;;;;;;0.67;69.20;97882.38;5003292;28;20080;-61
2021/04/09 03:04:46;;;;;;;9.85;3.30;;;;;;;0.03;70.13;97821.91;5005406;28;20021;-61
2021/04/09 03:07:11;;;;;;;11.48;3.60;;;;;;;0.62;70.57;97890.59;5003470;28;20026;-61
2021/04/09 03:09:38;;;;;;;7.47;3.72;;;;;;;0.20;71.35;97833.19;5005592;28;20041;-61
2021/04/09 03:12:24;;;;;;;6.15;3.28;;;;;;;-0.16;73.12;97834.56;5004243;28;20489;-63
2021/04/09 03:14:51;;;;;;;8.77;3.60;;;;;;;0.26;72.61;97883.81;5004928;28;20046;-61
2021/04/09 03:17:31;;;;;;;11.02;3.55;;;;;;;0.01;73.39;97845.88;5004705;28;20132;-62
2021/04/09 03:19:56;;;;;;;8.85;3.53;;;;;;;0.33;73.13;97892.47;5005135;28;20034;-61
2021/04/09 03:22:21;;;;;;;12.25;5.57;;;;;;;0.28;73.39;97895.25;5003034;28;20042;-61
2021/04/09 03:24:47;;;;;;;14.90;6.80;;;;;;;-0.11;73.65;97832.59;5005078;28;20030;-62
2021/04/09 03:27:16;;;;;;;8.70;4.75;;;;;;;0.16;73.18;97867.53;5003366;28;20029;-63
2021/04/09 03:29:44;;;;;;;16.35;5.70;;;;;;;0.35;73.15;97894.91;4893996;28;5001348;-60
2021/04/09 03:32:12;;;;;;;17.33;7.50;;;;;;;0.45;73.07;97895.66;5001363;28;20053;-60
2021/04/09 03:34:41;;;;;;;14.25;7.53;;;;;;;-0.38;71.78;97766.13;5005093;28;20500;-62
2021/04/09 03:37:07;;;;;;;39.42;13.98;;;;;;;0.28;71.46;97846.22;5002641;28;20452;-60
2021/04/09 03:39:33;;;;;;;17.52;7.28;;;;;;;0.19;71.06;97847.88;5004964;28;20038;-61
2021/04/09 03:41:58;;;;;;;18.65;9.25;;;;;;;0.36;71.84;97831.16;5004461;28;20034;-61
2021/04/09 03:44:24;;;;;;;28.45;14.95;;;;;;;0.84;70.74;97904.56;5004948;28;20042;-62
2021/04/09 03:46:49;;;;;;;45.00;18.88;;;;;;;0.67;69.35;97882.38;5004784;28;20412;-61
2021/04/09 03:49:15;;;;;;;29.15;14.95;;;;;;;0.96;68.81;97918.66;5005424;28;20029;-61
2021/04/09 03:51:40;;;;;;;19.95;8.45;;;;;;;1.01;68.86;97928.69;5002437;28;20036;-62
2021/04/09 03:54:06;;;;;;;12.40;7.65;;;;;;;0.99;68.96;97923.53;5004841;28;20034;-61
2021/04/09 03:56:32;;;;;;;29.58;10.05;;;;;;;0.56;68.22;97864.47;5004143;28;20069;-61
2021/04/09 03:58:57;;;;;;;16.98;7.07;;;;;;;1.10;67.87;97935.97;5004792;28;20317;-62
2021/04/09 04:01:27;;;;;;;22.95;9.85;;;;;;;0.72;66.58;97846.06;5003926;28;20065;-62
2021/04/09 04:03:53;;;;;;;24.00;10.00;;;;;;;0.82;67.01;97876.75;5004768;28;20077;-62
2021/04/09 04:06:18;;;;;;;34.67;13.55;;;;;;;1.31;66.77;97940.09;5002994;28;20066;-61
2021/04/09 04:08:44;;;;;;;37.55;16.75;;;;;;;0.49;66.60;97790.41;5004211;28;20066;-61
2021/04/09 04:11:10;;;;;;;26.65;13.30;;;;;;;1.41;69.63;97948.19;5003736;28;20042;-61
2021/04/09 04:13:35;;;;;;;56.05;23.05;;;;;;;1.41;68.36;97953.63;5004325;28;20030;-62
2021/04/09 04:16:00;;;;;;;37.95;17.13;;;;;;;1.38;67.71;97940.56;5003618;28;20497;-63
2021/04/09 04:18:26;;;;;;;22.00;10.25;;;;;;;1.14;65.56;97898.81;5004369;28;20572;-61
2021/04/09 04:20:51;;;;;;;23.38;9.52;;;;;;;1.06;63.29;97896.72;5001828;28;20037;-60
2021/04/09 04:23:17;;;;;;;34.28;15.32;;;;;;;1.16;62.93;97891.16;5003706;28;20038;-61
2021/04/09 04:25:42;;;;;;;31.20;13.93;;;;;;;1.65;64.15;97958.28;5003564;28;20548;-60
2021/04/09 04:28:08;;;;;;;26.80;12.88;;;;;;;1.21;63.28;97888.38;5002366;28;20076;-61
2021/04/09 04:30:33;;;;;;;60.35;20.42;;;;;;;1.48;63.44;97931.47;5003341;28;20253;-62
2021/04/09 04:32:59;;;;;;;53.83;19.35;;;;;;;1.81;61.75;97967.94;5004254;28;20034;-60
2021/04/09 04:35:24;;;;;;;36.28;14.45;;;;;;;1.76;60.89;97944.22;5003461;28;20164;-61
2021/04/09 04:37:50;;;;;;;47.55;18.05;;;;;;;2.02;59.55;97955.66;5002285;28;20125;-63
2021/04/09 04:40:15;;;;;;;41.92;16.77;;;;;;;2.05;60.06;97933.22;5001994;28;20088;-63
2021/04/09 04:42:41;;;;;;;47.88;20.35;;;;;;;2.43;59.17;97970.38;5003964;28;20512;-62
2021/04/09 04:45:07;;;;;;;52.50;24.58;;;;;;;2.61;59.11;97972.28;5003555;28;20030;-61
2021/04/09 04:47:33;;;;;;;53.33;19.55;;;;;;;2.66;58.76;97962.09;5004009;28;20034;-61
2021/04/09 04:49:58;;;;;;;68.50;25.98;;;;;;;2.84;57.30;97982.34;5001237;28;20053;-61
2021/04/09 04:52:23;;;;;;;34.75;14.15;;;;;;;2.98;57.31;97988.69;5003128;28;20494;-61
2021/04/09 04:54:49;;;;;;;23.83;12.18;;;;;;;3.19;55.95;97981.75;5003853;28;20045;-60
2021/04/09 04:57:14;;;;;;;29.60;12.48;;;;;;;3.29;54.65;97967.88;5003485;28;20041;-62
2021/04/09 04:59:40;;;;;;;20.67;8.65;;;;;;;2.79;52.96;97831.97;5002072;28;20041;-60
2021/04/09 05:02:05;;;;;;;27.67;11.70;;;;;;;3.34;51.40;97899.34;5002975;28;20034;-62
2021/04/09 05:04:30;;;;;;;25.65;10.25;;;;;;;4.05;51.11;97995.47;5003773;28;20572;-62
2021/04/09 05:06:56;;;;;;;22.20;11.35;;;;;;;4.25;49.95;97997.75;5002850;28;20034;-61
2021/04/09 05:09:21;;;;;;;24.98;10.98;;;;;;;4.35;49.75;97999.47;5003544;28;20479;-62
2021/04/09 05:11:47;;;;;;;22.80;10.80;;;;;;;4.05;49.88;97926.94;5002933;28;20041;-61
2021/04/09 05:14:12;;;;;;;11.88;4.90;;;;;;;4.61;47.99;98001.38;5004060;28;20478;-61
2021/04/09 05:16:38;;;;;;;17.75;7.45;;;;;;;4.77;47.39;97999.09;5003839;28;20519;-60
2021/04/09 05:19:03;;;;;;;38.85;15.80;;;;;;;4.81;47.78;97967.16;5004342;28;20092;-62
2021/04/09 05:21:29;;;;;;;17.73;7.53;;;;;;;4.69;45.43;97931.25;5001700;28;20033;-62
2021/04/09 05:23:54;;;;;;;13.55;6.82;;;;;;;5.28;45.95;98004.19;5003791;28;20432;-61
2021/04/09 05:26:20;;;;;;;16.40;8.35;;;;;;;5.42;46.54;98013.19;5003040;28;20057;-63
2021/04/09 05:28:45;;;;;;;18.35;7.93;;;;;;;5.55;45.91;98009.50;5002015;28;20049;-61
2021/04/09 05:31:10;;;;;;;14.40;5.97;;;;;;;5.54;45.78;98013.41;5003089;28;20036;-62
2021/04/09 05:33:36;;;;;;;11.82;6.45;;;;;;;5.71;46.51;98014.31;5004117;28;20026;-62
2021/04/09 05:36:01;;;;;;;15.48;7.65;;;;;;;5.67;45.22;98012.50;5006004;28;20116;-62
2021/04/09 05:38:27;;;;;;;24.30;12.10;;;;;;;5.49;46.42;97961.31;5005456;28;20441;-62
2021/04/09 05:40:52;;;;;;;7.78;4.80;;;;;;;5.93;46.35;98016.22;5006409;28;20571;-61
2021/04/09 05:43:18;;;;;;;11.25;5.07;;;;;;;5.67;44.81;97963.03;5006985;28;20033;-63
2021/04/09 05:45:44;;;;;;;10.15;5.28;;;;;;;5.40;44.01;97897.28;5006369;28;20042;-62
2021/04/09 05:48:09;;;;;;;8.02;3.92;;;;;;;6.28;43.38;98029.00;5005263;28;20048;-62
2021/04/09 05:50:35;;;;;;;17.77;11.45;;;;;;;6.25;42.21;97991.13;5006332;28;20034;-61
2021/04/09 05:53:02;;;;;;;12.27;5.88;;;;;;;6.50;43.50;98009.63;5022239;28;20873;-62
2021/04/09 05:55:28;;;;;;;16.83;8.20;;;;;;;6.68;43.21;98019.56;5005403;28;20061;-58
2021/04/09 05:57:53;;;;;;;15.05;7.38;;;;;;;6.73;44.07;98022.16;5000376;28;20149;-59
2021/04/09 06:00:19;;;;;;;6.57;3.67;;;;;;;6.56;42.83;98002.84;5005711;28;20092;-62
2021/04/09 06:02:45;;;;;;;12.52;5.53;;;;;;;6.39;42.29;97969.78;4997426;28;20042;-60
2021/04/09 06:05:11;;;;;;;5.97;3.15;;;;;;;6.88;40.94;98020.84;4998580;28;20498;-60
2021/04/09 06:07:36;;;;;;;8.70;4.50;;;;;;;6.94;41.61;98047.94;5005882;28;20099;-65
2021/04/09 06:10:04;;;;;;;13.30;5.30;;;;;;;6.16;41.34;97880.25;5005929;28;20072;-61
2021/04/09 06:12:29;;;;;;;10.05;4.25;;;;;;;6.89;41.08;97962.69;5003809;28;20029;-62
2021/04/09 06:14:55;;;;;;;10.15;4.53;;;;;;;7.35;39.31;98019.91;5000750;28;20034;-64
2021/04/09 06:17:20;;;;;;;20.48;9.00;;;;;;;7.50;39.50;98034.00;5003853;28;20109;-64
2021/04/09 06:19:49;;;;;;;9.00;4.13;;;;;;;7.38;39.23;98025.56;5004433;28;20040;-58
2021/04/09 06:22:15;;;;;;;8.57;3.20;;;;;;;7.24;39.01;97964.31;5003592;28;20120;-59
2021/04/09 06:24:42;;;;;;;7.18;3.47;;;;;;;7.77;39.53;98023.72;4993870;28;20539;-59
2021/04/09 06:27:08;;;;;;;6.53;3.00;;;;;;;7.70;38.96;98026.97;5000589;28;20041;-60
2021/04/09 06:29:34;;;;;;;3.90;2.80;;;;;;;7.68;37.54;98023.75;5005756;28;20103;-56
2021/04/09 06:32:00;;;;;;;21.50;12.93;;;;;;;7.82;39.10;98023.56;5004839;28;20460;-61
2021/04/09 06:34:25;;;;;;;8.27;4.10;;;;;;;7.49;38.89;97971.72;5006072;28;20121;-65
2021/04/09 06:36:51;;;;;;;10.45;4.15;;;;;;;8.03;38.89;98025.25;5009706;28;20038;-68
2021/04/09 06:39:16;;;;;;;7.00;3.47;;;;;;;7.99;38.67;98001.41;5000441;28;20069;-71
2021/04/09 06:41:42;;;;;;;5.93;3.58;;;;;;;8.19;37.87;98034.63;5003546;28;20481;-70
2021/04/09 06:44:08;;;;;;;4.90;3.22;;;;;;;8.16;37.85;98057.38;5002945;28;20065;-70
2021/04/09 06:46:34;;;;;;;4.28;2.70;;;;;;;8.03;36.87;98014.22;4994622;28;20092;-70
2021/04/09 06:48:59;;;;;;;6.15;3.45;;;;;;;7.77;37.49;97998.91;5004947;28;20026;-69
2021/04/09 06:51:26;;;;;;;5.07;3.17;;;;;;;7.12;37.15;97884.28;5004534;28;20428;-65
2021/04/09 06:53:53;;;;;;;9.30;3.80;;;;;;;8.39;37.32;98056.03;5005297;28;20033;-65
2021/04/09 06:56:19;;;;;;;4.55;2.40;;;;;;;7.98;35.38;97977.75;5001008;28;20060;-65
2021/04/09 06:58:48;;;;;;;4.28;2.90;;;;;;;7.42;36.83;97841.88;5002747;28;20820;-69
2021/04/09 07:01:20;;;;;;;7.95;3.17;;;;;;;8.82;34.88;98048.31;5002971;28;20064;-69
2021/04/09 07:03:45;;;;;;;5.57;3.03;;;;;;;8.56;34.74;97994.38;5004288;28;20036;-65
2021/04/09 07:06:11;;;;;;;7.10;3.47;;;;;;;8.88;33.89;98040.63;5003108;28;20041;-64
2021/04/09 07:08:42;;;;;;;27.08;12.95;;;;;;;8.59;33.18;97961.38;5004520;28;20071;-64
2021/04/09 07:11:08;;;;;;;6.85;4.80;;;;;;;9.27;33.13;98042.13;5002690;28;20042;-63
2021/04/09 07:13:49;;;;;;;6.65;3.63;;;;;;;9.35;31.98;98039.31;5005291;28;20508;-66
2021/04/09 07:16:15;;;;;;;6.88;3.10;;;;;;;8.96;31.63;98045.31;5004497;28;20046;-64
2021/04/09 07:18:49;;;;;;;7.25;3.00;;;;;;;9.10;31.79;98049.41;5003424;28;20034;-63
2021/04/09 07:21:21;;;;;;;6.90;2.78;;;;;;;9.20;33.04;98053.72;5004119;28;20045;-67
2021/04/09 07:23:47;;;;;;;9.32;4.55;;;;;;;9.10;32.87;98046.63;5004652;28;20042;-63
2021/04/09 07:26:46;;;;;;;5.05;2.75;;;;;;;9.41;31.97;98059.25;5004774;28;20527;-66
2021/04/09 07:29:30;;;;;;;5.70;2.90;;;;;;;9.34;31.86;98059.81;5005230;28;20482;-61
2021/04/09 07:31:56;;;;;;;4.32;3.10;;;;;;;9.49;32.67;98059.19;5002170;28;20030;-60
2021/04/09 07:34:22;;;;;;;6.07;2.47;;;;;;;8.95;30.62;98057.47;5001946;28;20034;-64
2021/04/09 07:36:54;;;;;;;3.65;2.45;;;;;;;8.47;33.18;97986.13;4997077;28;20042;-62
2021/04/09 07:39:33;;;;;;;3.75;2.55;;;;;;;8.29;31.06;98066.59;5003074;28;20050;-63
2021/04/09 07:42:12;;;;;;;4.80;1.92;;;;;;;7.93;32.58;98080.00;5003392;28;20104;-65
2021/04/09 07:44:39;;;;;;;3.40;1.77;;;;;;;7.91;32.60;98098.81;5012731;28;20087;-63
2021/04/09 07:47:13;;;;;;;2.53;1.83;;;;;;;7.73;32.22;98076.78;4999484;28;20033;-64
2021/04/09 07:49:39;;;;;;;5.38;2.10;;;;;;;7.74;32.94;98083.91;5000169;28;20533;-63
2021/04/09 07:52:09;;;;;;;4.40;2.08;;;;;;;6.87;32.23;97937.44;5001515;28;20117;-64
2021/04/09 07:54:35;;;;;;;4.55;2.22;;;;;;;8.33;31.99;98106.22;5002844;28;20046;-63
2021/04/09 07:57:00;;;;;;;3.22;2.10;;;;;;;8.09;32.86;98040.53;5001356;28;20421;-62
2021/04/09 07:59:41;;;;;;;10.05;4.65;;;;;;;8.91;32.53;98090.53;5002023;28;20814;-65
2021/04/09 08:02:08;;;;;;;2.42;1.88;;;;;;;8.08;29.38;97919.44;5003048;28;20057;-67
2021/04/09 08:04:37;;;;;;;3.35;2.15;;;;;;;9.18;30.44;98083.69;5002956;28;20050;-63
2021/04/09 08:07:03;;;;;;;4.65;3.05;;;;;;;8.60;31.25;97946.41;5002987;28;20141;-67
2021/04/09 08:09:47;;;;;;;3.00;1.73;;;;;;;9.81;29.45;98086.09;5002098;28;20060;-63
2021/04/09 08:12:33;;;;;;;6.07;2.17;;;;;;;8.97;29.00;97983.34;4999685;28;20073;-66
2021/04/09 08:15:19;;;;;;;5.50;2.00;;;;;;;10.03;28.57;98096.78;5000087;28;20145;-60
2021/04/09 08:17:58;;;;;;;2.35;1.88;;;;;;;10.16;30.35;98101.22;5003905;28;20073;-62
2021/04/09 08:20:25;;;;;;;2.58;2.00;;;;;;;9.97;29.79;98036.44;5002283;28;20037;-63
2021/04/09 08:22:51;;;;;;;4.30;2.35;;;;;;;10.53;30.82;98086.28;5002265;28;20409;-62
2021/04/09 08:25:16;;;;;;;7.13;3.85;;;;;;;9.97;30.84;97972.78;5000427;28;20413;-62
2021/04/09 08:27:43;;;;;;;2.10;1.90;;;;;;;10.90;30.13;98081.59;5003797;28;20087;-62
2021/04/09 08:30:10;;;;;;;25.55;4.53;;;;;;;10.83;29.72;98077.78;5004134;28;20058;-62
2021/04/09 08:32:35;;;;;;;6.65;2.67;;;;;;;9.91;28.84;98030.28;5003826;28;20121;-61
2021/04/09 08:35:01;;;;;;;3.50;2.08;;;;;;;10.20;29.08;98113.25;5002733;28;20132;-64
2021/04/09 08:37:28;;;;;;;2.53;1.60;;;;;;;9.85;30.53;98078.72;5003610;28;20030;-60
2021/04/09 08:39:54;;;;;;;5.10;2.50;;;;;;;10.12;29.36;98086.44;5001660;28;20033;-64
2021/04/09 08:42:21;;;;;;;4.45;2.30;;;;;;;10.30;29.59;98082.34;4999905;28;20038;-63
2021/04/09 08:44:47;;;;;;;28.05;18.40;;;;;;;9.78;30.15;97931.81;4991980;28;20064;-63
2021/04/09 08:47:16;;;;;;;4.30;2.30;;;;;;;10.89;28.31;98077.19;4999831;28;20042;-69
2021/04/09 08:49:42;;;;;;;8.30;5.75;;;;;;;10.17;28.83;97966.34;5001935;28;20048;-62
2021/04/09 08:52:09;;;;;;;6.35;2.25;;;;;;;10.93;27.69;98074.53;5001313;28;20051;-61
2021/04/09 08:54:34;;;;;;;5.00;2.35;;;;;;;10.86;27.05;98054.91;5002117;28;20041;-62
2021/04/09 08:57:03;;;;;;;2.97;1.88;;;;;;;10.39;27.19;98047.03;5006111;28;20041;-63
2021/04/09 08:59:38;;;;;;;2.35;1.90;;;;;;;10.68;27.68;98082.84;4999670;28;20033;-69
2021/04/09 09:02:19;;;;;;;3.47;1.92;;;;;;;10.65;28.21;98089.06;5001745;28;20519;-63
2021/04/09 09:05:02;;;;;;;2.50;2.20;;;;;;;9.19;27.74;97902.84;5002211;28;20046;-64
2021/04/09 09:07:43;;;;;;;5.17;3.63;;;;;;;10.21;29.45;98089.91;4994992;28;20042;-62
2021/04/09 09:10:33;;;;;;;2.58;1.67;;;;;;;9.99;29.25;98081.97;5016045;28;20497;-62
2021/04/09 09:13:05;;;;;;;2.83;1.70;;;;;;;9.74;29.45;98102.41;5006080;28;20030;-68
2021/04/09 09:15:49;;;;;;;3.37;2.33;;;;;;;10.21;28.05;98095.47;5004339;28;20099;-65
2021/04/09 09:18:32;;;;;;;3.88;1.80;;;;;;;10.47;27.43;98090.44;5004330;28;20535;-64
2021/04/09 09:21:04;;;;;;;3.45;2.42;;;;;;;10.91;29.45;98079.63;5002860;28;20042;-68
2021/04/09 09:23:51;;;;;;;3.30;1.45;;;;;;;10.07;27.25;98094.97;5003270;28;20069;-63
2021/04/09 09:26:23;;;;;;;3.13;2.72;;;;;;;9.76;27.89;97955.44;5006664;28;20053;-62
2021/04/09 09:29:07;;;;;;;3.17;2.13;;;;;;;10.83;27.48;98084.13;5007522;28;20050;-62
2021/04/09 09:31:34;;;;;;;3.25;1.98;;;;;;;10.54;27.83;98013.09;5006723;28;20054;-63
2021/04/09 09:34:18;;;;;;;2.47;2.15;;;;;;;11.08;29.50;98082.16;5007399;28;20033;-62
2021/04/09 09:36:59;;;;;;;4.35;2.08;;;;;;;10.40;28.94;98070.03;5006935;28;20121;-62
2021/04/09 09:39:47;;;;;;;4.25;2.05;;;;;;;10.32;29.03;98080.03;5006850;28;20531;-63
2021/04/09 09:42:28;;;;;;;5.80;2.00;;;;;;;10.02;29.62;98081.31;5006421;28;20058;-63
2021/04/09 09:44:57;;;;;;;3.20;1.90;;;;;;;10.19;29.98;98083.94;5006810;28;20141;-61
2021/04/09 09:47:31;;;;;;;2.95;1.80;;;;;;;9.58;30.76;98003.81;5006288;28;20149;-61
2021/04/09 09:50:12;;;;;;;3.05;2.10;;;;;;;10.28;29.90;98073.56;5006635;28;20030;-62
2021/04/09 09:52:56;;;;;;;3.83;1.60;;;;;;;9.91;31.20;98085.66;5007225;28;20137;-61
2021/04/09 09:55:29;;;;;;;;;;;;;;;10.31;31.32;98083.97;5005367;28;20421;-63
2021/04/09 09:58:02;;;;;;;5.97;2.47;;;;;;;10.67;31.21;98085.94;5004029;28;19955;-63
2021/04/09 10:00:54;;;;;;;4.88;1.63;;;;;;;10.93;30.59;98085.63;5005731;28;20033;-64
2021/04/09 10:03:28;;;;;;;1.77;1.63;;;;;;;11.15;29.37;98085.13;5005091;28;20088;-63
2021/04/09 10:06:01;;;;;;;;;;;;;;;10.89;30.49;98087.47;4996390;28;20033;-63
2021/04/09 10:08:27;;;;;;;2.85;1.60;;;;;;;10.56;28.49;98091.16;5005051;28;19933;-63
2021/04/09 10:10:54;;;;;;;3.50;2.30;;;;;;;10.97;29.03;98084.56;5005833;28;20052;-63
2021/04/09 10:13:25;;;;;;;2.63;1.60;;;;;;;11.13;31.18;98088.25;5006221;28;20416;-64
2021/04/09 10:15:54;;;;;;;2.58;1.60;;;;;;;10.72;29.98;98093.25;5004899;28;20419;-64
2021/04/09 10:18:20;;;;;;;4.80;1.98;;;;;;;10.04;29.59;97984.88;5006764;28;20061;-65
2021/04/09 10:20:47;;;;;;;2.25;1.98;;;;;;;10.30;30.05;98098.97;5004131;28;20493;-65
2021/04/09 10:23:14;;;;;;;5.20;2.80;;;;;;;10.59;29.09;98075.81;5005322;28;20115;-63
2021/04/09 10:25:40;;;;;;;1.83;1.63;;;;;;;10.05;29.43;98041.84;5005005;28;20038;-63
2021/04/09 10:28:12;;;;;;;6.95;2.97;;;;;;;10.86;31.36;98066.00;5005476;28;20026;-61
2021/04/09 10:30:39;;;;;;;4.95;2.40;;;;;;;11.35;29.34;98084.19;5002667;28;20612;-63
2021/04/09 10:33:05;;;;;;;2.22;1.90;;;;;;;10.91;29.04;98085.19;5004528;28;20518;-62
2021/04/09 10:35:30;;;;;;;2.58;2.30;;;;;;;10.76;29.57;97994.41;5004072;28;20049;-64
2021/04/09 10:38:17;;;;;;;3.55;2.25;;;;;;;10.27;29.38;98088.56;5003578;28;20030;-60
2021/04/09 10:40:56;;;;;;;5.28;2.65;;;;;;;10.64;30.96;98014.59;5003254;28;20049;-61
2021/04/09 10:43:33;;;;;;;4.30;2.30;;;;;;;10.38;29.95;98017.75;5004421;28;20073;-63
2021/04/09 10:46:09;;;;;;;6.18;3.75;;;;;;;9.01;28.77;97774.28;5004223;28;20118;-61
2021/04/09 10:48:35;;;;;;;3.55;1.83;;;;;;;11.67;28.74;98075.69;5004636;28;20045;-62
2021/04/09 10:51:01;;;;;;;2.47;2.28;;;;;;;11.68;28.32;98021.00;4990076;28;20030;-64
2021/04/09 10:53:27;;;;;;;3.03;2.65;;;;;;;12.27;28.08;98066.25;5001737;28;20504;-63
2021/04/09 10:55:59;;;;;;;4.88;2.05;;;;;;;11.67;26.30;98002.72;5004782;28;20463;-62
2021/04/09 10:58:25;;;;;;;4.18;2.65;;;;;;;11.15;27.03;98005.53;5004502;28;20038;-61
2021/04/09 11:00:50;;;;;;;4.13;2.60;;;;;;;12.17;28.20;98061.25;5001949;28;20072;-66
2021/04/09 11:03:16;;;;;;;2.80;2.20;;;;;;;12.43;28.00;98064.31;5004145;28;20180;-59
2021/04/09 11:05:42;;;;;;;4.72;3.20;;;;;;;12.37;28.01;97976.81;5003839;28;20041;-66
2021/04/09 11:08:07;;;;;;;4.00;2.20;;;;;;;13.07;26.90;98034.16;5001494;28;20038;-64
2021/04/09 11:10:37;;;;;;;3.20;1.80;;;;;;;13.47;27.63;98054.16;5004706;28;20041;-62
2021/04/09 11:13:07;;;;;;;2.55;2.33;;;;;;;12.59;27.52;97978.97;4985236;28;20125;-62
2021/04/09 11:15:43;;;;;;;2.75;2.13;;;;;;;12.50;27.28;98031.16;4998796;28;20047;-63
2021/04/09 11:18:09;;;;;;;2.88;2.17;;;;;;;12.85;26.55;98029.22;5004696;28;20060;-63
2021/04/09 11:20:42;;;;;;;2.40;2.20;;;;;;;11.97;27.67;97895.66;5003969;28;20548;-64
2021/04/09 11:23:10;;;;;;;3.83;2.28;;;;;;;12.82;26.05;98049.41;5005572;28;20034;-62
2021/04/09 11:25:38;;;;;;;3.65;2.45;;;;;;;12.76;26.11;98038.91;5004454;28;20439;-63
2021/04/09 11:28:05;;;;;;;3.92;2.25;;;;;;;12.91;25.06;98063.94;5005101;28;20030;-62
2021/04/09 11:30:33;;;;;;;3.33;2.10;;;;;;;13.16;25.37;98036.75;5004616;28;20075;-62
2021/04/09 11:32:59;;;;;;;2.45;1.98;;;;;;;13.07;25.29;97964.59;5004869;28;20856;-62
2021/04/09 11:35:31;;;;;;;2.67;2.13;;;;;;;13.30;26.51;98037.88;5004483;28;20121;-63
2021/04/09 11:37:56;;;;;;;2.72;2.53;;;;;;;12.75;27.27;98035.34;5004980;28;20400;-64
2021/04/09 11:40:40;;;;;;;5.07;3.25;;;;;;;13.52;27.02;98039.94;5004118;28;20076;-63
2021/04/09 11:43:07;;;;;;;3.75;2.40;;;;;;;13.11;27.42;98034.22;5004888;28;20150;-62